createdAt,value
2018-12-14T00:01:04.779Z,95175.00
2018-12-14T00:03:33.840Z,95187.00
2018-12-14T00:06:03.020Z,95182.00
2018-12-14T00:11:11.372Z,95183.00
2018-12-14T00:16:19.728Z,95190.00
2018-12-14T00:18:49.021Z,95184.00
2018-12-14T00:21:18.204Z,95192.00
2018-12-14T00:23:47.379Z,95181.00
2018-12-14T00:31:14.556Z,95187.00
2018-12-14T00:36:22.989Z,95188.00
2018-12-14T00:38:52.283Z,95194.00
2018-12-14T00:41:21.560Z,95203.00
2018-12-14T00:46:31.944Z,95201.00
2018-12-14T00:49:01.359Z,95217.00
2018-12-14T00:54:10.067Z,95206.00
2018-12-14T00:56:39.294Z,95202.00
2018-12-14T00:59:08.578Z,95204.00
2018-12-14T01:01:37.699Z,95194.00
2018-12-14T01:06:46.472Z,95213.00
2018-12-14T01:09:15.584Z,95212.00
2018-12-14T01:11:44.840Z,95205.00
2018-12-14T01:14:14.179Z,95217.00
2018-12-14T01:16:43.376Z,95215.00
2018-12-14T01:19:12.647Z,95221.00
2018-12-14T01:24:22.544Z,95217.00
2018-12-14T01:26:52.943Z,95210.00
2018-12-14T01:32:01.232Z,95209.00
2018-12-14T01:34:30.525Z,95212.00
2018-12-14T01:36:59.638Z,95226.00
2018-12-14T01:39:29.312Z,95217.00
2018-12-14T01:42:04.636Z,95227.00
2018-12-14T01:44:29.662Z,95228.00
2018-12-14T01:46:58.762Z,95234.00
2018-12-14T01:52:06.960Z,95231.00
2018-12-14T01:54:36.292Z,95224.00
2018-12-14T01:57:05.433Z,95235.00
2018-12-14T01:59:34.667Z,95234.00
2018-12-14T02:02:04.036Z,95239.00
2018-12-14T02:04:33.201Z,95211.00
2018-12-14T02:07:02.407Z,95226.00
2018-12-14T02:09:32.337Z,95214.00
2018-12-14T02:12:02.527Z,95217.00
2018-12-14T02:17:05.605Z,95225.00
2018-12-14T02:19:34.964Z,95206.00
2018-12-14T02:24:43.272Z,95215.00
2018-12-14T02:29:50.586Z,95198.00
2018-12-14T02:32:19.673Z,95196.00
2018-12-14T02:34:50.014Z,95196.00
2018-12-14T02:39:58.262Z,95193.00
2018-12-14T02:42:27.422Z,95208.00
2018-12-14T02:44:56.593Z,95201.00
2018-12-14T02:50:04.885Z,95205.00
2018-12-14T02:52:34.126Z,95208.00
2018-12-14T02:55:03.611Z,95224.00
2018-12-14T02:57:33.235Z,95195.00
2018-12-14T03:00:04.348Z,95204.00
2018-12-14T03:02:33.648Z,95210.00
2018-12-14T03:05:03.643Z,95212.00
2018-12-14T03:07:33.258Z,95208.00
2018-12-14T03:12:43.457Z,95212.00
2018-12-14T03:15:12.667Z,95207.00
2018-12-14T03:17:41.792Z,95206.00
2018-12-14T03:20:11.249Z,95211.00
2018-12-14T03:22:40.497Z,95216.00
2018-12-14T03:25:10.730Z,95221.00
2018-12-14T03:27:39.880Z,95224.00
2018-12-14T03:30:10.220Z,95226.00
2018-12-14T03:32:39.427Z,95216.00
2018-12-14T03:37:46.840Z,95211.00
2018-12-14T03:42:55.097Z,95227.00
2018-12-14T03:45:24.386Z,95242.00
2018-12-14T03:47:53.495Z,95236.00
2018-12-14T03:53:00.715Z,95235.00
2018-12-14T03:55:29.823Z,95231.00
2018-12-14T03:57:59.178Z,95234.00
2018-12-14T04:00:28.727Z,95237.00
2018-12-14T04:02:58.125Z,95240.00
2018-12-14T04:05:27.910Z,95240.00
2018-12-14T04:07:57.232Z,95239.00
2018-12-14T04:10:27.476Z,95235.00
2018-12-14T04:12:56.573Z,95244.00
2018-12-14T04:15:25.617Z,95233.00
2018-12-14T04:17:54.835Z,95228.00
2018-12-14T04:20:24.136Z,95244.00
2018-12-14T04:22:53.280Z,95243.00
2018-12-14T04:25:22.460Z,95241.00
2018-12-14T04:27:51.587Z,95243.00
2018-12-14T04:30:20.709Z,95252.00
2018-12-14T04:35:29.080Z,95252.00
2018-12-14T04:37:58.239Z,95253.00
2018-12-14T04:43:06.552Z,95252.00
2018-12-14T04:45:35.680Z,95274.00
2018-12-14T04:48:04.910Z,95265.00
2018-12-14T04:53:13.637Z,95263.00
2018-12-14T04:55:42.782Z,95276.00
2018-12-14T04:58:11.948Z,95261.00
2018-12-14T05:00:41.034Z,95268.00
2018-12-14T05:03:10.179Z,95266.00
2018-12-14T05:05:39.413Z,95256.00
2018-12-14T05:08:08.497Z,95256.00
2018-12-14T05:10:37.601Z,95272.00
2018-12-14T05:13:08.298Z,95266.00
2018-12-14T05:15:37.440Z,95275.00
2018-12-14T05:18:06.594Z,95271.00
2018-12-14T05:23:20.367Z,95279.00
2018-12-14T05:28:29.178Z,95281.00
2018-12-14T05:31:00.016Z,95285.00
2018-12-14T05:36:15.728Z,95288.00
2018-12-14T05:38:44.951Z,95281.00
2018-12-14T05:41:14.271Z,95280.00
2018-12-14T05:43:43.432Z,95286.00
2018-12-14T05:48:51.207Z,95299.00
2018-12-14T05:53:58.582Z,95296.00
2018-12-14T05:56:28.952Z,95298.00
2018-12-14T05:58:58.040Z,95288.00
2018-12-14T06:04:06.041Z,95297.00
2018-12-14T06:06:35.883Z,95292.00
2018-12-14T06:11:46.966Z,95286.00
2018-12-14T06:14:16.280Z,95298.00
2018-12-14T06:16:45.564Z,95290.00
2018-12-14T06:19:14.646Z,95297.00
2018-12-14T06:21:43.772Z,95309.00
2018-12-14T06:24:12.928Z,95296.00
2018-12-14T06:26:41.974Z,95303.00
2018-12-14T06:29:11.120Z,95319.00
2018-12-14T06:31:40.380Z,95322.00
2018-12-14T06:34:09.618Z,95320.00
2018-12-14T06:36:38.692Z,95318.00
2018-12-14T06:39:08.095Z,95317.00
2018-12-14T06:41:37.350Z,95322.00
2018-12-14T06:46:45.897Z,95325.00
2018-12-14T06:51:54.101Z,95315.00
2018-12-14T06:54:23.521Z,95315.00
2018-12-14T06:59:31.702Z,95319.00
2018-12-14T07:02:00.859Z,95313.00
2018-12-14T07:07:09.192Z,95318.00
2018-12-14T07:12:17.036Z,95331.00
2018-12-14T07:17:25.368Z,95316.00
2018-12-14T07:19:54.692Z,95322.00
2018-12-14T07:22:23.715Z,95321.00
2018-12-14T07:24:54.334Z,95319.00
2018-12-14T07:27:23.468Z,95330.00
2018-12-14T07:29:52.593Z,95342.00
2018-12-14T07:32:21.764Z,95352.00
2018-12-14T07:34:50.899Z,95345.00
2018-12-14T07:37:19.939Z,95343.00
2018-12-14T07:39:49.111Z,95330.00
2018-12-14T07:42:18.338Z,95347.00
2018-12-14T07:47:26.665Z,95358.00
2018-12-14T07:52:34.076Z,95349.00
2018-12-14T07:55:03.372Z,95359.00
2018-12-14T07:57:32.526Z,95361.00
2018-12-14T08:02:42.200Z,95366.00
2018-12-14T08:05:11.420Z,95369.00
2018-12-14T08:07:40.644Z,95369.00
2018-12-14T08:10:10.638Z,95370.00
2018-12-14T08:12:39.885Z,95379.00
2018-12-14T08:15:11.451Z,95378.00
2018-12-14T08:20:19.012Z,95386.00
2018-12-14T08:22:48.054Z,95386.00
2018-12-14T08:25:17.930Z,95393.00
2018-12-14T08:27:47.154Z,95391.00
2018-12-14T08:30:16.599Z,95389.00
2018-12-14T08:35:24.836Z,95392.00
2018-12-14T08:37:54.019Z,95400.00
2018-12-14T08:40:24.623Z,95395.00
2018-12-14T08:42:53.791Z,95406.00
2018-12-14T08:48:02.375Z,95405.00
2018-12-14T08:53:10.192Z,95416.00
2018-12-14T08:58:19.024Z,95428.00
2018-12-14T09:00:48.269Z,95426.00
2018-12-14T09:03:17.905Z,95423.00
2018-12-14T09:05:47.093Z,95427.00
2018-12-14T09:08:16.168Z,95423.00
2018-12-14T09:10:45.333Z,95431.00
2018-12-14T09:13:14.514Z,95437.00
2018-12-14T09:18:22.303Z,95432.00
2018-12-14T09:20:51.440Z,95437.00
2018-12-14T09:23:20.519Z,95419.00
2018-12-14T09:25:49.633Z,95435.00
2018-12-14T09:30:59.175Z,95421.00
2018-12-14T09:36:07.125Z,95435.00
2018-12-14T09:38:36.245Z,95436.00
2018-12-14T09:41:05.437Z,95446.00
2018-12-14T09:43:34.571Z,95443.00
2018-12-14T09:46:03.843Z,95447.00
2018-12-14T09:48:32.991Z,95443.00
2018-12-14T09:51:02.121Z,95442.00
2018-12-14T09:53:31.328Z,95433.00
2018-12-14T09:58:39.356Z,95439.00
2018-12-14T10:01:08.516Z,95443.00
2018-12-14T10:03:38.373Z,95436.00
2018-12-14T10:06:07.588Z,95454.00
2018-12-14T10:08:36.621Z,95440.00
2018-12-14T10:11:05.790Z,95443.00
2018-12-14T10:13:35.208Z,95439.00
2018-12-14T10:16:04.696Z,95440.00
2018-12-14T10:18:33.868Z,95445.00
2018-12-14T10:21:02.984Z,95446.00
2018-12-14T10:23:32.124Z,95443.00
2018-12-14T10:26:01.254Z,95445.00
2018-12-14T10:28:30.440Z,95449.00
2018-12-14T10:30:59.685Z,95458.00
2018-12-14T10:33:28.800Z,95454.00
2018-12-14T10:35:57.989Z,95449.00
2018-12-14T10:38:27.112Z,95447.00
2018-12-14T10:40:56.264Z,95439.00
2018-12-14T10:43:25.375Z,95448.00
2018-12-14T10:48:35.031Z,95439.00
2018-12-14T10:51:04.154Z,95465.00
2018-12-14T10:53:33.364Z,95442.00
2018-12-14T10:56:02.422Z,95439.00
2018-12-14T10:58:31.485Z,95451.00
2018-12-14T11:01:06.110Z,95451.00
2018-12-14T11:03:35.177Z,95452.00
2018-12-14T11:08:43.551Z,95460.00
2018-12-14T11:11:12.724Z,95467.00
2018-12-14T11:13:42.758Z,95463.00
2018-12-14T11:16:11.823Z,95451.00
2018-12-14T11:18:41.825Z,95461.00
2018-12-14T11:21:11.955Z,95452.00
2018-12-14T11:23:42.003Z,95458.00
2018-12-14T11:28:51.029Z,95452.00
2018-12-14T11:31:20.211Z,95458.00
2018-12-14T11:33:49.279Z,95462.00
2018-12-14T11:36:18.549Z,95447.00
2018-12-14T11:38:47.721Z,95451.00
2018-12-14T11:43:57.229Z,95443.00
2018-12-14T11:49:05.665Z,95449.00
2018-12-14T11:54:13.864Z,95461.00
2018-12-14T11:56:43.039Z,95448.00
2018-12-14T12:01:51.062Z,95458.00
2018-12-14T12:04:20.168Z,95441.00
2018-12-14T12:09:28.392Z,95449.00
2018-12-14T12:14:36.685Z,95450.00
2018-12-14T12:17:05.821Z,95454.00
2018-12-14T12:19:34.881Z,95444.00
2018-12-14T12:22:04.128Z,95439.00
2018-12-14T12:24:33.406Z,95453.00
2018-12-14T12:27:02.556Z,95451.00
2018-12-14T12:29:31.633Z,95441.00
2018-12-14T12:32:00.918Z,95448.00
2018-12-14T12:34:30.044Z,95438.00
2018-12-14T12:36:59.179Z,95458.00
2018-12-14T12:42:08.601Z,95437.00
2018-12-14T12:44:37.726Z,95434.00
2018-12-14T12:47:06.898Z,95437.00
2018-12-14T12:49:36.124Z,95446.00
2018-12-14T12:54:43.458Z,95450.00
2018-12-14T12:57:13.423Z,95441.00
2018-12-14T13:02:22.792Z,95450.00
2018-12-14T13:04:52.340Z,95439.00
2018-12-14T13:07:21.553Z,95442.00
2018-12-14T13:09:50.733Z,95444.00
2018-12-14T13:12:19.892Z,95444.00
2018-12-14T13:14:49.233Z,95440.00
2018-12-14T13:17:18.375Z,95446.00
2018-12-14T13:22:26.200Z,95435.00
2018-12-14T13:24:55.319Z,95461.00
2018-12-14T13:30:04.218Z,95451.00
2018-12-14T13:35:12.084Z,95464.00
2018-12-14T13:37:41.215Z,95473.00
2018-12-14T13:40:10.556Z,95476.00
2018-12-14T13:42:39.864Z,95483.00
2018-12-14T13:45:09.429Z,95466.00
2018-12-14T13:47:38.525Z,95484.00
2018-12-14T13:50:08.041Z,95483.00
2018-12-14T13:55:14.966Z,95500.00
2018-12-14T14:00:25.075Z,95503.00
2018-12-14T14:05:32.799Z,95497.00
2018-12-14T14:08:01.972Z,95497.00
2018-12-14T14:10:31.057Z,95496.00
2018-12-14T14:13:00.160Z,95491.00
2018-12-14T14:18:08.464Z,95500.00
2018-12-14T14:20:37.643Z,95503.00
2018-12-14T14:23:06.668Z,95517.00
2018-12-14T14:25:36.218Z,95519.00
2018-12-14T14:28:05.379Z,95523.00
2018-12-14T14:30:34.724Z,95518.00
2018-12-14T14:33:04.013Z,95512.00
2018-12-14T14:35:33.268Z,95515.00
2018-12-14T14:38:02.433Z,95515.00
2018-12-14T14:40:31.468Z,95518.00
2018-12-14T14:43:00.636Z,95523.00
2018-12-14T14:45:30.247Z,95527.00
2018-12-14T14:50:37.592Z,95533.00
2018-12-14T14:53:06.731Z,95546.00
2018-12-14T14:58:15.036Z,95537.00
2018-12-14T15:00:44.140Z,95530.00
2018-12-14T15:05:53.080Z,95546.00
2018-12-14T15:08:22.283Z,95541.00
2018-12-14T15:10:51.386Z,95548.00
2018-12-14T15:13:20.511Z,95559.00
2018-12-14T15:15:49.649Z,95551.00
2018-12-14T15:18:18.849Z,95557.00
2018-12-14T15:23:29.155Z,95567.00
2018-12-14T15:25:58.288Z,95559.00
2018-12-14T15:28:27.502Z,95557.00
2018-12-14T15:30:56.600Z,95561.00
2018-12-14T15:33:25.880Z,95564.00
2018-12-14T15:35:55.119Z,95568.00
2018-12-14T15:38:24.288Z,95562.00
2018-12-14T15:40:53.422Z,95584.00
2018-12-14T15:43:22.620Z,95580.00
2018-12-14T15:45:51.883Z,95586.00
2018-12-14T15:50:59.309Z,95580.00
2018-12-14T15:53:28.460Z,95592.00
2018-12-14T15:55:57.575Z,95589.00
2018-12-14T15:58:26.690Z,95596.00
2018-12-14T16:00:55.906Z,95590.00
2018-12-14T16:03:25.048Z,95587.00
2018-12-14T16:05:54.178Z,95592.00
2018-12-14T16:08:23.298Z,95596.00
2018-12-14T16:13:31.527Z,95603.00
2018-12-14T16:16:00.713Z,95605.00
2018-12-14T16:18:30.359Z,95604.00
2018-12-14T16:20:59.449Z,95614.00
2018-12-14T16:23:28.601Z,95612.00
2018-12-14T16:25:57.872Z,95617.00
2018-12-14T16:28:27.038Z,95609.00
2018-12-14T16:30:56.100Z,95613.00
2018-12-14T16:33:25.188Z,95615.00
2018-12-14T16:35:54.372Z,95623.00
2018-12-14T16:38:23.813Z,95634.00
2018-12-14T16:43:32.115Z,95627.00
2018-12-14T16:46:01.327Z,95628.00
2018-12-14T16:48:30.532Z,95620.00
2018-12-14T16:53:43.259Z,95634.00
2018-12-14T16:56:13.522Z,95635.00
2018-12-14T17:01:21.785Z,95636.00
2018-12-14T17:06:30.346Z,95635.00
2018-12-14T17:08:59.541Z,95640.00
2018-12-14T17:11:28.760Z,95643.00
2018-12-14T17:13:59.058Z,95648.00
2018-12-14T17:16:28.277Z,95658.00
2018-12-14T17:18:57.460Z,95643.00
2018-12-14T17:21:26.549Z,95656.00
2018-12-14T17:23:55.652Z,95669.00
2018-12-14T17:26:24.863Z,95655.00
2018-12-14T17:31:32.626Z,95666.00
2018-12-14T17:36:40.977Z,95668.00
2018-12-14T17:39:10.152Z,95681.00
2018-12-14T17:44:18.556Z,95673.00
2018-12-14T17:46:48.613Z,95674.00
2018-12-14T17:51:58.198Z,95673.00
2018-12-14T17:54:27.307Z,95666.00
2018-12-14T17:56:56.459Z,95667.00
2018-12-14T17:59:25.651Z,95672.00
2018-12-14T18:04:33.908Z,95685.00
2018-12-14T18:07:03.256Z,95677.00
2018-12-14T18:09:34.184Z,95681.00
2018-12-14T18:12:03.525Z,95684.00
2018-12-14T18:14:32.664Z,95695.00
2018-12-14T18:19:40.910Z,95678.00
2018-12-14T18:24:49.256Z,95685.00
2018-12-14T18:29:59.796Z,95687.00
2018-12-14T18:32:28.924Z,95681.00
2018-12-14T18:34:58.033Z,95689.00
2018-12-14T18:37:27.200Z,95690.00
2018-12-14T18:39:56.311Z,95697.00
2018-12-14T18:42:25.413Z,95705.00
2018-12-14T18:44:54.584Z,95693.00
2018-12-14T18:47:23.707Z,95696.00
2018-12-14T18:52:32.139Z,95700.00
2018-12-14T18:55:01.350Z,95704.00
2018-12-14T18:57:31.370Z,95706.00
2018-12-14T19:00:00.468Z,95701.00
2018-12-14T19:02:29.627Z,95707.00
2018-12-14T19:04:59.416Z,95721.00
2018-12-14T19:07:28.513Z,95727.00
2018-12-14T19:09:57.700Z,95721.00
2018-12-14T19:12:27.348Z,95725.00
2018-12-14T19:14:56.837Z,95723.00
2018-12-14T19:20:16.287Z,95738.00
2018-12-14T19:22:45.965Z,95738.00
2018-12-14T19:25:15.115Z,95726.00
2018-12-14T19:27:44.288Z,95740.00
2018-12-14T19:30:14.747Z,95740.00
2018-12-14T19:32:43.929Z,95742.00
2018-12-14T19:37:52.261Z,95750.00
2018-12-14T19:40:21.429Z,95746.00
2018-12-14T19:42:50.648Z,95762.00
2018-12-14T19:45:19.984Z,95747.00
2018-12-14T19:47:49.396Z,95767.00
2018-12-14T19:50:19.344Z,95767.00
2018-12-14T19:52:49.196Z,95777.00
2018-12-14T19:55:19.274Z,95775.00
2018-12-14T20:00:27.296Z,95784.00
2018-12-14T20:05:36.188Z,95787.00
2018-12-14T20:08:05.446Z,95789.00
2018-12-14T20:13:12.990Z,95790.00
2018-12-14T20:15:42.095Z,95787.00
2018-12-14T20:18:11.303Z,95794.00
2018-12-14T20:20:40.652Z,95789.00
2018-12-14T20:23:09.796Z,95783.00
2018-12-14T20:25:38.900Z,95784.00
2018-12-14T20:28:08.071Z,95786.00
2018-12-14T20:30:37.248Z,95799.00
2018-12-14T20:33:06.424Z,95791.00
2018-12-14T20:35:35.904Z,95794.00
2018-12-14T20:38:05.539Z,95799.00
2018-12-14T20:40:34.738Z,95802.00
2018-12-14T20:43:03.931Z,95802.00
2018-12-14T20:45:33.160Z,95805.00
2018-12-14T20:48:02.296Z,95808.00
2018-12-14T20:50:31.417Z,95792.00
2018-12-14T20:53:00.512Z,95796.00
2018-12-14T20:55:29.627Z,95799.00
2018-12-14T20:57:59.759Z,95800.00
2018-12-14T21:03:07.093Z,95806.00
2018-12-14T21:05:36.293Z,95814.00
2018-12-14T21:08:05.419Z,95810.00
2018-12-14T21:10:34.645Z,95811.00
2018-12-14T21:13:04.048Z,95814.00
2018-12-14T21:15:33.292Z,95817.00
2018-12-14T21:18:02.551Z,95820.00
2018-12-14T21:20:31.858Z,95809.00
2018-12-14T21:23:01.252Z,95820.00
2018-12-14T21:25:30.440Z,95817.00
2018-12-14T21:27:59.531Z,95819.00
2018-12-14T21:30:29.761Z,95826.00
2018-12-14T21:32:59.333Z,95827.00
2018-12-14T21:35:28.514Z,95812.00
2018-12-14T21:37:57.584Z,95808.00
2018-12-14T21:40:26.756Z,95812.00
2018-12-14T21:42:55.932Z,95804.00
2018-12-14T21:45:25.097Z,95822.00
2018-12-14T21:47:54.280Z,95823.00
2018-12-14T21:50:23.745Z,95819.00
2018-12-14T21:52:52.884Z,95824.00
2018-12-14T21:55:22.083Z,95824.00
2018-12-14T21:57:51.527Z,95810.00
2018-12-14T22:00:21.360Z,95824.00
2018-12-14T22:02:51.319Z,95825.00
2018-12-14T22:05:21.359Z,95831.00
2018-12-14T22:07:51.547Z,95818.00
2018-12-14T22:10:21.751Z,95831.00
2018-12-14T22:12:51.709Z,95821.00
2018-12-14T22:18:00.875Z,95802.00
2018-12-14T22:20:29.963Z,95815.00
2018-12-14T22:22:59.040Z,95804.00
2018-12-14T22:25:28.196Z,95819.00
2018-12-14T22:27:57.444Z,95813.00
2018-12-14T22:30:26.580Z,95823.00
2018-12-14T22:32:55.695Z,95832.00
2018-12-14T22:35:24.838Z,95816.00
2018-12-14T22:37:53.985Z,95818.00
2018-12-14T22:40:23.219Z,95824.00
2018-12-14T22:42:52.463Z,95826.00
2018-12-14T22:45:21.761Z,95815.00
2018-12-14T22:47:53.209Z,95810.00
2018-12-14T22:53:00.515Z,95816.00
2018-12-14T22:55:29.652Z,95813.00
2018-12-14T22:57:58.969Z,95807.00
2018-12-14T23:00:28.504Z,95804.00
2018-12-14T23:02:57.635Z,95804.00
2018-12-14T23:08:07.093Z,95803.00
2018-12-14T23:13:14.904Z,95802.00
2018-12-14T23:15:44.015Z,95814.00
2018-12-14T23:20:51.821Z,95800.00
2018-12-14T23:23:23.293Z,95812.00
2018-12-14T23:25:52.410Z,95812.00
2018-12-14T23:28:22.247Z,95820.00
2018-12-14T23:30:52.291Z,95806.00
2018-12-14T23:33:22.332Z,95809.00
2018-12-14T23:35:52.334Z,95811.00
2018-12-14T23:41:01.364Z,95809.00
2018-12-14T23:43:30.422Z,95814.00
2018-12-14T23:45:59.620Z,95804.00
2018-12-14T23:51:06.816Z,95820.00
2018-12-14T23:53:36.047Z,95819.00
2018-12-14T23:58:44.364Z,95821.00
